sensor_id;sensor_type;location;lat;lon;timestamp;temperature;humidity
74420;DHT22;62855;50.718;-2.460;2023-08-06T00:00:07;54.50;79.00
74420;DHT22;62855;50.718;-2.460;2023-08-06T00:03:06;54.50;80.00
74420;DHT22;62855;50.718;-2.460;2023-08-06T00:06:05;54.50;80.00
74420;DHT22;62855;50.718;-2.460;2023-08-06T00:09:06;54.32;80.00
74420;DHT22;62855;50.718;-2.460;2023-08-06T00:12:06;54.32;80.00
74420;DHT22;62855;50.718;-2.460;2023-08-06T00:15:08;54.32;80.00
74420;DHT22;62855;50.718;-2.460;2023-08-06T00:18:06;54.32;80.00
74420;DHT22;62855;50.718;-2.460;2023-08-06T00:21:06;54.32;80.00
74420;DHT22;62855;50.718;-2.460;2023-08-06T00:24:06;54.14;80.00
74420;DHT22;62855;50.718;-2.460;2023-08-06T00:27:06;54.14;80.00
74420;DHT22;62855;50.718;-2.460;2023-08-06T00:30:07;53.96;81.00
74420;DHT22;62855;50.718;-2.460;2023-08-06T00:33:06;53.96;81.00
74420;DHT22;62855;50.718;-2.460;2023-08-06T00:36:06;53.96;81.00
74420;DHT22;62855;50.718;-2.460;2023-08-06T00:39:06;53.96;81.00
74420;DHT22;62855;50.718;-2.460;2023-08-06T00:42:06;53.78;81.00
74420;DHT22;62855;50.718;-2.460;2023-08-06T00:45:06;53.78;81.00
74420;DHT22;62855;50.718;-2.460;2023-08-06T00:48:06;53.78;82.00
74420;DHT22;62855;50.718;-2.460;2023-08-06T00:51:06;53.78;82.00
74420;DHT22;62855;50.718;-2.460;2023-08-06T00:54:06;53.78;82.00
74420;DHT22;62855;50.718;-2.460;2023-08-06T00:57:07;53.60;82.00
74420;DHT22;62855;50.718;-2.460;2023-08-06T01:00:07;53.60;82.00
74420;DHT22;62855;50.718;-2.460;2023-08-06T01:03:06;53.60;82.00
74420;DHT22;62855;50.718;-2.460;2023-08-06T01:06:06;53.60;82.00
74420;DHT22;62855;50.718;-2.460;2023-08-06T01:09:12;53.42;82.00
74420;DHT22;62855;50.718;-2.460;2023-08-06T01:12:13;53.42;82.00
74420;DHT22;62855;50.718;-2.460;2023-08-06T01:15:11;53.42;83.00
74420;DHT22;62855;50.718;-2.460;2023-08-06T01:18:06;53.42;83.00
74420;DHT22;62855;50.718;-2.460;2023-08-06T01:21:06;53.42;83.00
74420;DHT22;62855;50.718;-2.460;2023-08-06T01:24:06;53.24;86.00
74420;DHT22;62855;50.718;-2.460;2023-08-06T01:27:10;53.24;86.00
74420;DHT22;62855;50.718;-2.460;2023-08-06T01:30:12;53.24;86.00
74420;DHT22;62855;50.718;-2.460;2023-08-06T01:33:09;53.06;86.00
74420;DHT22;62855;50.718;-2.460;2023-08-06T01:36:06;53.06;87.00
74420;DHT22;62855;50.718;-2.460;2023-08-06T01:39:06;53.06;87.00
74420;DHT22;62855;50.718;-2.460;2023-08-06T01:42:07;53.06;87.00
74420;DHT22;62855;50.718;-2.460;2023-08-06T01:45:07;52.88;87.00
74420;DHT22;62855;50.718;-2.460;2023-08-06T01:48:06;52.88;87.00
74420;DHT22;62855;50.718;-2.460;2023-08-06T01:51:07;52.88;87.00
74420;DHT22;62855;50.718;-2.460;2023-08-06T01:54:06;52.70;88.00
74420;DHT22;62855;50.718;-2.460;2023-08-06T01:57:06;52.70;88.00
74420;DHT22;62855;50.718;-2.460;2023-08-06T02:00:07;52.70;88.00
74420;DHT22;62855;50.718;-2.460;2023-08-06T02:03:06;52.70;88.00
74420;DHT22;62855;50.718;-2.460;2023-08-06T02:06:06;52.52;88.00
74420;DHT22;62855;50.718;-2.460;2023-08-06T02:09:06;52.52;88.00
74420;DHT22;62855;50.718;-2.460;2023-08-06T02:12:07;52.52;89.00
74420;DHT22;62855;50.718;-2.460;2023-08-06T02:15:07;52.52;89.00
74420;DHT22;62855;50.718;-2.460;2023-08-06T02:18:06;52.52;89.00
74420;DHT22;62855;50.718;-2.460;2023-08-06T02:21:06;52.34;89.00
74420;DHT22;62855;50.718;-2.460;2023-08-06T02:24:06;52.34;90.00
74420;DHT22;62855;50.718;-2.460;2023-08-06T02:27:06;52.34;90.00
74420;DHT22;62855;50.718;-2.460;2023-08-06T02:30:07;52.34;90.00
74420;DHT22;62855;50.718;-2.460;2023-08-06T02:33:06;52.16;90.00
74420;DHT22;62855;50.718;-2.460;2023-08-06T02:36:06;52.16;90.00
74420;DHT22;62855;50.718;-2.460;2023-08-06T02:39:06;52.16;90.00
74420;DHT22;62855;50.718;-2.460;2023-08-06T02:42:06;52.16;90.00
74420;DHT22;62855;50.718;-2.460;2023-08-06T02:45:08;52.16;90.00
74420;DHT22;62855;50.718;-2.460;2023-08-06T02:48:06;52.16;90.00
74420;DHT22;62855;50.718;-2.460;2023-08-06T02:51:06;52.16;90.00
74420;DHT22;62855;50.718;-2.460;2023-08-06T02:54:06;52.16;90.00
74420;DHT22;62855;50.718;-2.460;2023-08-06T02:57:06;52.16;90.00
74420;DHT22;62855;50.718;-2.460;2023-08-06T03:00:07;52.16;90.00
74420;DHT22;62855;50.718;-2.460;2023-08-06T03:03:06;52.16;90.00
74420;DHT22;62855;50.718;-2.460;2023-08-06T03:06:06;52.16;91.00
74420;DHT22;62855;50.718;-2.460;2023-08-06T03:09:06;52.16;91.00
74420;DHT22;62855;50.718;-2.460;2023-08-06T03:12:06;52.16;91.00
74420;DHT22;62855;50.718;-2.460;2023-08-06T03:15:07;51.98;91.00
74420;DHT22;62855;50.718;-2.460;2023-08-06T03:18:06;51.98;91.00
74420;DHT22;62855;50.718;-2.460;2023-08-06T03:21:06;51.98;91.00
74420;DHT22;62855;50.718;-2.460;2023-08-06T03:24:06;51.98;91.00
74420;DHT22;62855;50.718;-2.460;2023-08-06T03:27:06;51.98;91.00
74420;DHT22;62855;50.718;-2.460;2023-08-06T03:30:07;51.98;91.00
74420;DHT22;62855;50.718;-2.460;2023-08-06T03:33:06;51.98;91.00
74420;DHT22;62855;50.718;-2.460;2023-08-06T03:36:06;52.16;91.00
74420;DHT22;62855;50.718;-2.460;2023-08-06T03:39:05;52.16;91.00
74420;DHT22;62855;50.718;-2.460;2023-08-06T03:42:05;52.16;91.00
74420;DHT22;62855;50.718;-2.460;2023-08-06T03:45:07;52.16;91.00
74420;DHT22;62855;50.718;-2.460;2023-08-06T03:48:07;52.16;91.00
74420;DHT22;62855;50.718;-2.460;2023-08-06T03:51:06;52.16;91.00
74420;DHT22;62855;50.718;-2.460;2023-08-06T03:54:06;52.16;91.00
74420;DHT22;62855;50.718;-2.460;2023-08-06T03:57:06;52.16;91.00
74420;DHT22;62855;50.718;-2.460;2023-08-06T04:00:07;52.16;91.00
74420;DHT22;62855;50.718;-2.460;2023-08-06T04:03:06;51.98;91.00
74420;DHT22;62855;50.718;-2.460;2023-08-06T04:06:07;51.98;91.00
74420;DHT22;62855;50.718;-2.460;2023-08-06T04:09:06;51.98;91.00
74420;DHT22;62855;50.718;-2.460;2023-08-06T04:12:07;51.98;91.00
74420;DHT22;62855;50.718;-2.460;2023-08-06T04:15:07;51.98;91.00
74420;DHT22;62855;50.718;-2.460;2023-08-06T04:18:06;51.98;91.00
74420;DHT22;62855;50.718;-2.460;2023-08-06T04:21:06;51.80;91.00
74420;DHT22;62855;50.718;-2.460;2023-08-06T04:24:06;51.80;91.00
74420;DHT22;62855;50.718;-2.460;2023-08-06T04:27:06;51.80;91.00
74420;DHT22;62855;50.718;-2.460;2023-08-06T04:30:07;51.80;91.00
74420;DHT22;62855;50.718;-2.460;2023-08-06T04:33:06;51.80;91.00
74420;DHT22;62855;50.718;-2.460;2023-08-06T04:36:06;51.80;91.00
74420;DHT22;62855;50.718;-2.460;2023-08-06T04:39:06;51.80;91.00
74420;DHT22;62855;50.718;-2.460;2023-08-06T04:42:06;51.80;91.00
74420;DHT22;62855;50.718;-2.460;2023-08-06T04:45:07;51.80;91.00
74420;DHT22;62855;50.718;-2.460;2023-08-06T04:48:05;51.80;91.00
74420;DHT22;62855;50.718;-2.460;2023-08-06T04:51:05;51.80;91.00
74420;DHT22;62855;50.718;-2.460;2023-08-06T04:54:06;51.80;91.00
74420;DHT22;62855;50.718;-2.460;2023-08-06T04:57:06;51.80;91.00
74420;DHT22;62855;50.718;-2.460;2023-08-06T05:00:07;51.80;91.00
74420;DHT22;62855;50.718;-2.460;2023-08-06T05:03:06;51.80;90.00
74420;DHT22;62855;50.718;-2.460;2023-08-06T05:06:06;51.80;90.00
74420;DHT22;62855;50.718;-2.460;2023-08-06T05:09:06;51.80;90.00
74420;DHT22;62855;50.718;-2.460;2023-08-06T05:12:06;51.98;90.00
74420;DHT22;62855;50.718;-2.460;2023-08-06T05:15:07;51.98;90.00
74420;DHT22;62855;50.718;-2.460;2023-08-06T05:18:06;51.98;90.00
74420;DHT22;62855;50.718;-2.460;2023-08-06T05:21:06;51.98;90.00
74420;DHT22;62855;50.718;-2.460;2023-08-06T05:24:06;51.98;90.00
74420;DHT22;62855;50.718;-2.460;2023-08-06T05:27:06;51.98;90.00
74420;DHT22;62855;50.718;-2.460;2023-08-06T05:30:07;51.98;90.00
74420;DHT22;62855;50.718;-2.460;2023-08-06T05:33:06;52.16;90.00
74420;DHT22;62855;50.718;-2.460;2023-08-06T05:36:06;52.16;90.00
74420;DHT22;62855;50.718;-2.460;2023-08-06T05:39:06;52.16;90.00
74420;DHT22;62855;50.718;-2.460;2023-08-06T05:42:06;52.16;90.00
74420;DHT22;62855;50.718;-2.460;2023-08-06T05:45:07;52.34;90.00
74420;DHT22;62855;50.718;-2.460;2023-08-06T05:48:06;52.34;90.00
74420;DHT22;62855;50.718;-2.460;2023-08-06T05:51:06;52.52;90.00
74420;DHT22;62855;50.718;-2.460;2023-08-06T05:54:06;52.52;90.00
74420;DHT22;62855;50.718;-2.460;2023-08-06T05:57:06;52.70;90.00
74420;DHT22;62855;50.718;-2.460;2023-08-06T06:00:07;52.70;90.00
74420;DHT22;62855;50.718;-2.460;2023-08-06T06:03:06;52.70;90.00
74420;DHT22;62855;50.718;-2.460;2023-08-06T06:06:06;52.70;90.00
74420;DHT22;62855;50.718;-2.460;2023-08-06T06:09:06;52.88;90.00
74420;DHT22;62855;50.718;-2.460;2023-08-06T06:12:06;52.88;90.00
74420;DHT22;62855;50.718;-2.460;2023-08-06T06:15:06;53.06;90.00
74420;DHT22;62855;50.718;-2.460;2023-08-06T06:18:06;53.24;90.00
74420;DHT22;62855;50.718;-2.460;2023-08-06T06:21:06;53.42;90.00
74420;DHT22;62855;50.718;-2.460;2023-08-06T06:24:06;53.60;86.00
74420;DHT22;62855;50.718;-2.460;2023-08-06T06:27:06;53.78;86.00
74420;DHT22;62855;50.718;-2.460;2023-08-06T06:30:07;53.96;86.00
74420;DHT22;62855;50.718;-2.460;2023-08-06T06:33:07;53.96;86.00
74420;DHT22;62855;50.718;-2.460;2023-08-06T06:36:06;54.14;86.00
74420;DHT22;62855;50.718;-2.460;2023-08-06T06:39:06;54.32;85.00
74420;DHT22;62855;50.718;-2.460;2023-08-06T06:42:06;54.32;85.00
74420;DHT22;62855;50.718;-2.460;2023-08-06T06:45:08;54.50;85.00
74420;DHT22;62855;50.718;-2.460;2023-08-06T06:48:06;54.86;85.00
74420;DHT22;62855;50.718;-2.460;2023-08-06T06:51:06;55.04;85.00
74420;DHT22;62855;50.718;-2.460;2023-08-06T06:54:06;55.40;84.00
74420;DHT22;62855;50.718;-2.460;2023-08-06T06:57:06;55.58;84.00
74420;DHT22;62855;50.718;-2.460;2023-08-06T07:00:07;55.94;84.00
74420;DHT22;62855;50.718;-2.460;2023-08-06T07:03:06;56.30;84.00
74420;DHT22;62855;50.718;-2.460;2023-08-06T07:06:07;56.66;84.00
74420;DHT22;62855;50.718;-2.460;2023-08-06T07:09:06;57.02;83.00
74420;DHT22;62855;50.718;-2.460;2023-08-06T07:12:07;57.20;83.00
74420;DHT22;62855;50.718;-2.460;2023-08-06T07:15:06;57.56;82.00
74420;DHT22;62855;50.718;-2.460;2023-08-06T07:18:06;57.92;81.00
74420;DHT22;62855;50.718;-2.460;2023-08-06T07:21:06;58.28;81.00
74420;DHT22;62855;50.718;-2.460;2023-08-06T07:24:06;58.46;80.00
74420;DHT22;62855;50.718;-2.460;2023-08-06T07:27:06;58.64;79.00
74420;DHT22;62855;50.718;-2.460;2023-08-06T07:30:06;58.82;78.00
74420;DHT22;62855;50.718;-2.460;2023-08-06T07:33:06;59.00;77.00
74420;DHT22;62855;50.718;-2.460;2023-08-06T07:36:08;59.18;76.00
74420;DHT22;62855;50.718;-2.460;2023-08-06T07:39:06;59.36;75.00
74420;DHT22;62855;50.718;-2.460;2023-08-06T07:42:07;59.54;75.00
74420;DHT22;62855;50.718;-2.460;2023-08-06T07:45:08;59.72;74.00
74420;DHT22;62855;50.718;-2.460;2023-08-06T07:48:06;59.72;74.00
74420;DHT22;62855;50.718;-2.460;2023-08-06T07:51:06;59.54;72.00
74420;DHT22;62855;50.718;-2.460;2023-08-06T07:54:06;59.54;72.00
74420;DHT22;62855;50.718;-2.460;2023-08-06T07:57:06;59.72;72.00
74420;DHT22;62855;50.718;-2.460;2023-08-06T08:00:07;60.08;73.00
74420;DHT22;62855;50.718;-2.460;2023-08-06T08:03:06;60.44;73.00
74420;DHT22;62855;50.718;-2.460;2023-08-06T08:06:06;60.80;72.00
74420;DHT22;62855;50.718;-2.460;2023-08-06T08:09:06;60.80;72.00
74420;DHT22;62855;50.718;-2.460;2023-08-06T08:12:06;60.98;71.00
74420;DHT22;62855;50.718;-2.460;2023-08-06T08:15:06;60.98;71.00
74420;DHT22;62855;50.718;-2.460;2023-08-06T08:18:06;61.16;71.00
74420;DHT22;62855;50.718;-2.460;2023-08-06T08:21:06;61.16;70.00
74420;DHT22;62855;50.718;-2.460;2023-08-06T08:24:06;61.34;70.00
74420;DHT22;62855;50.718;-2.460;2023-08-06T08:27:06;61.70;70.00
74420;DHT22;62855;50.718;-2.460;2023-08-06T08:30:07;62.06;70.00
74420;DHT22;62855;50.718;-2.460;2023-08-06T08:33:06;62.60;65.00
74420;DHT22;62855;50.718;-2.460;2023-08-06T08:36:06;62.78;64.00
74420;DHT22;62855;50.718;-2.460;2023-08-06T08:39:06;62.60;63.00
74420;DHT22;62855;50.718;-2.460;2023-08-06T08:42:06;62.42;65.00
74420;DHT22;62855;50.718;-2.460;2023-08-06T08:45:11;62.06;65.00
74420;DHT22;62855;50.718;-2.460;2023-08-06T08:48:06;62.06;66.00
74420;DHT22;62855;50.718;-2.460;2023-08-06T08:51:06;63.14;64.00
74420;DHT22;62855;50.718;-2.460;2023-08-06T08:54:07;63.50;65.00
74420;DHT22;62855;50.718;-2.460;2023-08-06T08:57:06;63.68;64.00
74420;DHT22;62855;50.718;-2.460;2023-08-06T09:00:07;63.50;63.00
74420;DHT22;62855;50.718;-2.460;2023-08-06T09:03:06;63.50;64.00
74420;DHT22;62855;50.718;-2.460;2023-08-06T09:06:06;63.50;64.00
74420;DHT22;62855;50.718;-2.460;2023-08-06T09:09:08;63.68;63.00
74420;DHT22;62855;50.718;-2.460;2023-08-06T09:12:12;63.86;63.00
74420;DHT22;62855;50.718;-2.460;2023-08-06T09:15:07;64.04;62.00
74420;DHT22;62855;50.718;-2.460;2023-08-06T09:18:09;63.86;61.00
74420;DHT22;62855;50.718;-2.460;2023-08-06T09:21:06;63.68;61.00
74420;DHT22;62855;50.718;-2.460;2023-08-06T09:24:08;63.50;62.00
74420;DHT22;62855;50.718;-2.460;2023-08-06T09:27:10;63.50;62.00
74420;DHT22;62855;50.718;-2.460;2023-08-06T09:30:07;63.32;62.00
74420;DHT22;62855;50.718;-2.460;2023-08-06T09:33:08;63.50;63.00
74420;DHT22;62855;50.718;-2.460;2023-08-06T09:36:08;63.50;63.00
74420;DHT22;62855;50.718;-2.460;2023-08-06T09:39:12;63.50;63.00
74420;DHT22;62855;50.718;-2.460;2023-08-06T09:42:06;63.50;63.00
74420;DHT22;62855;50.718;-2.460;2023-08-06T09:45:06;63.68;62.00
74420;DHT22;62855;50.718;-2.460;2023-08-06T09:48:07;63.86;62.00
74420;DHT22;62855;50.718;-2.460;2023-08-06T09:51:08;64.04;61.00
74420;DHT22;62855;50.718;-2.460;2023-08-06T09:54:07;64.40;61.00
74420;DHT22;62855;50.718;-2.460;2023-08-06T09:57:06;64.58;60.00
74420;DHT22;62855;50.718;-2.460;2023-08-06T10:00:08;64.76;60.00
74420;DHT22;62855;50.718;-2.460;2023-08-06T10:03:06;65.30;60.00
74420;DHT22;62855;50.718;-2.460;2023-08-06T10:06:07;65.66;59.00
74420;DHT22;62855;50.718;-2.460;2023-08-06T10:09:06;65.84;58.00
74420;DHT22;62855;50.718;-2.460;2023-08-06T10:12:06;65.84;58.00
74420;DHT22;62855;50.718;-2.460;2023-08-06T10:15:11;66.20;59.00
74420;DHT22;62855;50.718;-2.460;2023-08-06T10:18:07;66.20;58.00
74420;DHT22;62855;50.718;-2.460;2023-08-06T10:21:07;66.20;58.00
74420;DHT22;62855;50.718;-2.460;2023-08-06T10:24:07;65.84;59.00
74420;DHT22;62855;50.718;-2.460;2023-08-06T10:27:06;65.66;57.00
74420;DHT22;62855;50.718;-2.460;2023-08-06T10:30:21;65.48;58.00
74420;DHT22;62855;50.718;-2.460;2023-08-06T10:33:06;65.66;57.00
74420;DHT22;62855;50.718;-2.460;2023-08-06T10:36:08;65.66;56.00
74420;DHT22;62855;50.718;-2.460;2023-08-06T10:39:05;65.66;58.00
74420;DHT22;62855;50.718;-2.460;2023-08-06T10:45:12;66.38;59.00
74420;DHT22;62855;50.718;-2.460;2023-08-06T10:48:06;66.38;56.00
74420;DHT22;62855;50.718;-2.460;2023-08-06T10:51:07;66.38;56.00
74420;DHT22;62855;50.718;-2.460;2023-08-06T10:54:06;66.38;56.00
74420;DHT22;62855;50.718;-2.460;2023-08-06T10:57:09;66.38;54.00
74420;DHT22;62855;50.718;-2.460;2023-08-06T11:00:09;66.38;54.00
74420;DHT22;62855;50.718;-2.460;2023-08-06T11:03:06;66.38;54.00
74420;DHT22;62855;50.718;-2.460;2023-08-06T11:06:07;66.38;55.00
74420;DHT22;62855;50.718;-2.460;2023-08-06T11:09:06;66.38;54.00
74420;DHT22;62855;50.718;-2.460;2023-08-06T11:12:09;66.38;54.00
74420;DHT22;62855;50.718;-2.460;2023-08-06T11:15:07;66.74;56.00
74420;DHT22;62855;50.718;-2.460;2023-08-06T11:18:06;66.92;56.00
74420;DHT22;62855;50.718;-2.460;2023-08-06T11:21:06;66.74;53.00
74420;DHT22;62855;50.718;-2.460;2023-08-06T11:24:05;66.56;53.00
74420;DHT22;62855;50.718;-2.460;2023-08-06T11:27:11;66.56;53.00
74420;DHT22;62855;50.718;-2.460;2023-08-06T11:30:07;66.56;53.00
74420;DHT22;62855;50.718;-2.460;2023-08-06T11:33:07;66.74;53.00
74420;DHT22;62855;50.718;-2.460;2023-08-06T11:36:06;66.74;54.00
74420;DHT22;62855;50.718;-2.460;2023-08-06T11:39:05;66.56;52.00
74420;DHT22;62855;50.718;-2.460;2023-08-06T11:42:06;66.56;51.00
74420;DHT22;62855;50.718;-2.460;2023-08-06T11:45:07;66.56;52.00
74420;DHT22;62855;50.718;-2.460;2023-08-06T11:48:07;66.74;52.00
74420;DHT22;62855;50.718;-2.460;2023-08-06T11:51:11;66.92;54.00
74420;DHT22;62855;50.718;-2.460;2023-08-06T11:54:06;66.92;53.00
74420;DHT22;62855;50.718;-2.460;2023-08-06T11:57:06;66.92;52.00
74420;DHT22;62855;50.718;-2.460;2023-08-06T12:00:08;66.74;52.00
74420;DHT22;62855;50.718;-2.460;2023-08-06T12:03:06;66.92;52.00
74420;DHT22;62855;50.718;-2.460;2023-08-06T12:06:06;67.28;52.00
74420;DHT22;62855;50.718;-2.460;2023-08-06T12:09:06;67.46;53.00
74420;DHT22;62855;50.718;-2.460;2023-08-06T12:12:06;67.46;52.00
74420;DHT22;62855;50.718;-2.460;2023-08-06T12:15:07;67.64;52.00
74420;DHT22;62855;50.718;-2.460;2023-08-06T12:18:06;67.64;52.00
74420;DHT22;62855;50.718;-2.460;2023-08-06T12:21:06;67.46;51.00
74420;DHT22;62855;50.718;-2.460;2023-08-06T12:24:06;67.46;51.00
74420;DHT22;62855;50.718;-2.460;2023-08-06T12:27:06;67.46;51.00
74420;DHT22;62855;50.718;-2.460;2023-08-06T12:30:06;67.64;51.00
74420;DHT22;62855;50.718;-2.460;2023-08-06T12:33:06;67.64;51.00
74420;DHT22;62855;50.718;-2.460;2023-08-06T12:36:06;67.64;51.00
74420;DHT22;62855;50.718;-2.460;2023-08-06T12:39:06;67.46;51.00
74420;DHT22;62855;50.718;-2.460;2023-08-06T12:42:06;67.10;51.00
74420;DHT22;62855;50.718;-2.460;2023-08-06T12:45:07;67.10;52.00
74420;DHT22;62855;50.718;-2.460;2023-08-06T12:48:05;67.28;52.00
74420;DHT22;62855;50.718;-2.460;2023-08-06T12:51:06;67.46;53.00
74420;DHT22;62855;50.718;-2.460;2023-08-06T12:54:06;68.00;52.00
74420;DHT22;62855;50.718;-2.460;2023-08-06T12:57:06;68.36;51.00
74420;DHT22;62855;50.718;-2.460;2023-08-06T13:00:07;68.72;51.00
74420;DHT22;62855;50.718;-2.460;2023-08-06T13:03:06;68.90;51.00
74420;DHT22;62855;50.718;-2.460;2023-08-06T13:06:06;69.08;51.00
74420;DHT22;62855;50.718;-2.460;2023-08-06T13:09:07;69.44;51.00
74420;DHT22;62855;50.718;-2.460;2023-08-06T13:12:06;69.62;51.00
74420;DHT22;62855;50.718;-2.460;2023-08-06T13:15:07;69.98;52.00
74420;DHT22;62855;50.718;-2.460;2023-08-06T13:18:06;70.34;51.00
74420;DHT22;62855;50.718;-2.460;2023-08-06T13:21:06;70.34;50.00
74420;DHT22;62855;50.718;-2.460;2023-08-06T13:24:06;69.80;50.00
74420;DHT22;62855;50.718;-2.460;2023-08-06T13:27:06;69.26;50.00
74420;DHT22;62855;50.718;-2.460;2023-08-06T13:30:08;68.90;51.00
74420;DHT22;62855;50.718;-2.460;2023-08-06T13:33:06;68.72;51.00
74420;DHT22;62855;50.718;-2.460;2023-08-06T13:36:06;68.72;53.00
74420;DHT22;62855;50.718;-2.460;2023-08-06T13:39:05;69.26;52.00
74420;DHT22;62855;50.718;-2.460;2023-08-06T13:42:06;69.26;50.00
74420;DHT22;62855;50.718;-2.460;2023-08-06T13:45:07;69.08;51.00
74420;DHT22;62855;50.718;-2.460;2023-08-06T13:48:06;68.90;50.00
74420;DHT22;62855;50.718;-2.460;2023-08-06T13:51:06;69.08;51.00
74420;DHT22;62855;50.718;-2.460;2023-08-06T13:54:06;69.26;51.00
74420;DHT22;62855;50.718;-2.460;2023-08-06T13:57:06;69.44;51.00
74420;DHT22;62855;50.718;-2.460;2023-08-06T14:00:07;69.62;50.00
74420;DHT22;62855;50.718;-2.460;2023-08-06T14:03:06;69.80;50.00
74420;DHT22;62855;50.718;-2.460;2023-08-06T14:06:06;69.98;49.00
74420;DHT22;62855;50.718;-2.460;2023-08-06T14:09:06;69.98;50.00
74420;DHT22;62855;50.718;-2.460;2023-08-06T14:12:06;69.62;48.00
74420;DHT22;62855;50.718;-2.460;2023-08-06T14:15:07;69.08;49.00
74420;DHT22;62855;50.718;-2.460;2023-08-06T14:18:06;69.08;50.00
74420;DHT22;62855;50.718;-2.460;2023-08-06T14:21:06;69.26;51.00
74420;DHT22;62855;50.718;-2.460;2023-08-06T14:24:06;69.44;51.00
74420;DHT22;62855;50.718;-2.460;2023-08-06T14:27:06;69.26;50.00
74420;DHT22;62855;50.718;-2.460;2023-08-06T14:30:07;69.08;50.00
74420;DHT22;62855;50.718;-2.460;2023-08-06T14:33:05;68.72;50.00
74420;DHT22;62855;50.718;-2.460;2023-08-06T14:36:06;68.72;50.00
74420;DHT22;62855;50.718;-2.460;2023-08-06T14:39:06;69.08;51.00
74420;DHT22;62855;50.718;-2.460;2023-08-06T14:42:06;69.26;51.00
74420;DHT22;62855;50.718;-2.460;2023-08-06T14:45:07;69.62;51.00
74420;DHT22;62855;50.718;-2.460;2023-08-06T14:48:06;69.98;50.00
74420;DHT22;62855;50.718;-2.460;2023-08-06T14:51:06;69.98;49.00
74420;DHT22;62855;50.718;-2.460;2023-08-06T14:54:06;69.62;49.00
74420;DHT22;62855;50.718;-2.460;2023-08-06T14:57:06;69.44;48.00
74420;DHT22;62855;50.718;-2.460;2023-08-06T15:00:07;69.44;48.00
74420;DHT22;62855;50.718;-2.460;2023-08-06T15:03:06;69.62;48.00
74420;DHT22;62855;50.718;-2.460;2023-08-06T15:06:06;69.80;48.00
74420;DHT22;62855;50.718;-2.460;2023-08-06T15:09:07;69.98;48.00
74420;DHT22;62855;50.718;-2.460;2023-08-06T15:12:07;69.98;50.00
74420;DHT22;62855;50.718;-2.460;2023-08-06T15:15:08;69.98;50.00
74420;DHT22;62855;50.718;-2.460;2023-08-06T15:18:06;69.80;50.00
74420;DHT22;62855;50.718;-2.460;2023-08-06T15:21:06;69.62;50.00
74420;DHT22;62855;50.718;-2.460;2023-08-06T15:24:05;69.62;50.00
74420;DHT22;62855;50.718;-2.460;2023-08-06T15:27:06;69.62;50.00
74420;DHT22;62855;50.718;-2.460;2023-08-06T15:30:07;69.62;50.00
74420;DHT22;62855;50.718;-2.460;2023-08-06T15:33:06;69.44;50.00
74420;DHT22;62855;50.718;-2.460;2023-08-06T15:36:06;69.26;49.00
74420;DHT22;62855;50.718;-2.460;2023-08-06T15:39:06;68.90;50.00
74420;DHT22;62855;50.718;-2.460;2023-08-06T15:42:06;68.72;51.00
74420;DHT22;62855;50.718;-2.460;2023-08-06T15:45:07;68.72;50.00
74420;DHT22;62855;50.718;-2.460;2023-08-06T15:48:06;68.36;51.00
74420;DHT22;62855;50.718;-2.460;2023-08-06T15:51:06;68.18;51.00
74420;DHT22;62855;50.718;-2.460;2023-08-06T15:54:06;68.00;51.00
74420;DHT22;62855;50.718;-2.460;2023-08-06T15:57:06;67.82;51.00
74420;DHT22;62855;50.718;-2.460;2023-08-06T16:00:07;67.82;51.00
74420;DHT22;62855;50.718;-2.460;2023-08-06T16:03:06;67.82;51.00
74420;DHT22;62855;50.718;-2.460;2023-08-06T16:06:06;68.00;52.00
74420;DHT22;62855;50.718;-2.460;2023-08-06T16:09:06;68.18;51.00
74420;DHT22;62855;50.718;-2.460;2023-08-06T16:12:07;68.36;51.00
74420;DHT22;62855;50.718;-2.460;2023-08-06T16:15:07;68.36;51.00
74420;DHT22;62855;50.718;-2.460;2023-08-06T16:18:06;68.90;50.00
74420;DHT22;62855;50.718;-2.460;2023-08-06T16:21:06;69.08;50.00
74420;DHT22;62855;50.718;-2.460;2023-08-06T16:24:06;69.26;50.00
74420;DHT22;62855;50.718;-2.460;2023-08-06T16:27:06;69.08;49.00
74420;DHT22;62855;50.718;-2.460;2023-08-06T16:30:07;68.90;49.00
74420;DHT22;62855;50.718;-2.460;2023-08-06T16:33:06;68.90;48.00
74420;DHT22;62855;50.718;-2.460;2023-08-06T16:36:06;68.72;48.00
74420;DHT22;62855;50.718;-2.460;2023-08-06T16:39:06;68.72;47.00
74420;DHT22;62855;50.718;-2.460;2023-08-06T16:42:06;68.54;48.00
74420;DHT22;62855;50.718;-2.460;2023-08-06T16:45:07;68.54;49.00
74420;DHT22;62855;50.718;-2.460;2023-08-06T16:48:06;68.54;50.00
74420;DHT22;62855;50.718;-2.460;2023-08-06T16:51:06;68.54;49.00
74420;DHT22;62855;50.718;-2.460;2023-08-06T16:54:05;68.72;50.00
74420;DHT22;62855;50.718;-2.460;2023-08-06T16:57:06;68.72;49.00
74420;DHT22;62855;50.718;-2.460;2023-08-06T17:00:07;68.54;48.00
74420;DHT22;62855;50.718;-2.460;2023-08-06T17:03:06;68.36;49.00
74420;DHT22;62855;50.718;-2.460;2023-08-06T17:06:05;68.18;49.00
74420;DHT22;62855;50.718;-2.460;2023-08-06T17:09:06;68.18;49.00
74420;DHT22;62855;50.718;-2.460;2023-08-06T17:12:06;68.18;50.00
74420;DHT22;62855;50.718;-2.460;2023-08-06T17:15:07;68.18;50.00
74420;DHT22;62855;50.718;-2.460;2023-08-06T17:18:06;68.00;50.00
74420;DHT22;62855;50.718;-2.460;2023-08-06T17:21:06;67.82;50.00
74420;DHT22;62855;50.718;-2.460;2023-08-06T17:24:06;67.82;50.00
74420;DHT22;62855;50.718;-2.460;2023-08-06T17:27:06;67.82;50.00
74420;DHT22;62855;50.718;-2.460;2023-08-06T17:30:07;67.82;50.00
74420;DHT22;62855;50.718;-2.460;2023-08-06T17:33:06;67.64;50.00
74420;DHT22;62855;50.718;-2.460;2023-08-06T17:36:06;67.46;50.00
74420;DHT22;62855;50.718;-2.460;2023-08-06T17:39:06;67.46;50.00
74420;DHT22;62855;50.718;-2.460;2023-08-06T17:42:06;67.28;50.00
74420;DHT22;62855;50.718;-2.460;2023-08-06T17:45:07;67.28;50.00
74420;DHT22;62855;50.718;-2.460;2023-08-06T17:48:06;67.28;50.00
74420;DHT22;62855;50.718;-2.460;2023-08-06T17:51:06;67.28;50.00
74420;DHT22;62855;50.718;-2.460;2023-08-06T17:54:06;67.28;50.00
74420;DHT22;62855;50.718;-2.460;2023-08-06T17:57:06;67.10;50.00
74420;DHT22;62855;50.718;-2.460;2023-08-06T18:00:08;67.10;51.00
74420;DHT22;62855;50.718;-2.460;2023-08-06T18:03:06;66.92;50.00
74420;DHT22;62855;50.718;-2.460;2023-08-06T18:06:06;66.74;51.00
74420;DHT22;62855;50.718;-2.460;2023-08-06T18:09:06;66.56;51.00
74420;DHT22;62855;50.718;-2.460;2023-08-06T18:12:07;66.56;51.00
74420;DHT22;62855;50.718;-2.460;2023-08-06T18:15:07;66.38;51.00
74420;DHT22;62855;50.718;-2.460;2023-08-06T18:18:06;66.20;51.00
74420;DHT22;62855;50.718;-2.460;2023-08-06T18:21:06;65.84;51.00
74420;DHT22;62855;50.718;-2.460;2023-08-06T18:24:06;65.48;51.00
74420;DHT22;62855;50.718;-2.460;2023-08-06T18:27:06;65.48;52.00
74420;DHT22;62855;50.718;-2.460;2023-08-06T18:30:07;65.12;52.00
74420;DHT22;62855;50.718;-2.460;2023-08-06T18:33:06;64.76;52.00
74420;DHT22;62855;50.718;-2.460;2023-08-06T18:36:06;64.58;53.00
74420;DHT22;62855;50.718;-2.460;2023-08-06T18:39:06;64.40;53.00